Time;durP1;ratioP1;P1;durP2;ratioP2;P2;SDS_P1;SDS_P2;PMS_P1;PMS_P2;Temp;Humidity;BMP_temperature;BMP_pressure;BME280_temperature;BME280_humidity;BME280_pressure;Samples;Min_cycle;Max_cycle;Signal;HPM_P1;HPM_P2
2023/10/15 00:00:03;;;;;;;5.13;1.20;;;;;;;;;;4994669;28;25105;-75
2023/10/15 00:02:31;;;;;;;6.22;0.80;;;;;;;;;;4995239;28;25073;-71
2023/10/15 00:05:01;;;;;;;6.82;1.13;;;;;;;;;;4993373;28;25083;-73
2023/10/15 00:07:27;;;;;;;0.88;0.47;;;;;;;;;;4992964;28;25061;-71
2023/10/15 00:09:53;;;;;;;5.43;0.82;;;;;;;;;;4993159;28;25155;-70
2023/10/15 00:12:19;;;;;;;5.72;0.80;;;;;;;;;;4990014;28;25061;-72
2023/10/15 00:14:45;;;;;;;4.20;1.00;;;;;;;;;;4999720;28;25084;-74
2023/10/15 00:17:11;;;;;;;3.47;1.08;;;;;;;;;;4981715;28;25089;-70
2023/10/15 00:19:37;;;;;;;5.95;1.25;;;;;;;;;;4993583;28;25076;-72
2023/10/15 00:22:03;;;;;;;3.42;1.00;;;;;;;;;;4991543;28;25072;-73
2023/10/15 00:24:29;;;;;;;5.43;1.20;;;;;;;;;;4999122;28;25154;-71
2023/10/15 00:26:55;;;;;;;4.47;0.70;;;;;;;;;;4981210;28;25074;-76
2023/10/15 00:29:24;;;;;;;3.85;1.10;;;;;;;;;;4991498;28;25062;-72
2023/10/15 00:31:50;;;;;;;2.42;1.10;;;;;;;;;;4996419;28;25069;-71
2023/10/15 00:34:17;;;;;;;6.85;1.00;;;;;;;;;;4989725;28;25076;-71
2023/10/15 00:36:43;;;;;;;3.60;1.40;;;;;;;;;;4994391;28;25065;-72
2023/10/15 00:39:19;;;;;;;4.55;0.88;;;;;;;;;;4989322;28;25038;-72
2023/10/15 00:41:47;;;;;;;5.30;1.23;;;;;;;;;;4996159;28;25120;-72
2023/10/15 00:44:14;;;;;;;5.10;1.00;;;;;;;;;;4991125;28;25080;-72
2023/10/15 00:46:40;;;;;;;3.35;0.90;;;;;;;;;;4992335;28;25067;-73
2023/10/15 00:49:13;;;;;;;2.83;0.90;;;;;;;;;;4993827;28;25147;-70
2023/10/15 00:51:41;;;;;;;4.05;0.85;;;;;;;;;;4976907;28;25082;-73
2023/10/15 00:54:11;;;;;;;4.30;0.80;;;;;;;;;;4988635;28;25060;-70
2023/10/15 00:56:37;;;;;;;9.07;1.10;;;;;;;;;;4992614;28;25057;-73
2023/10/15 00:59:16;;;;;;;4.00;0.77;;;;;;;;;;4989105;28;25082;-73
2023/10/15 01:01:54;;;;;;;3.30;1.00;;;;;;;;;;4992152;28;25046;-69
2023/10/15 01:04:31;;;;;;;8.60;1.63;;;;;;;;;;4992119;28;25084;-72
2023/10/15 01:07:00;;;;;;;8.82;1.48;;;;;;;;;;4999399;28;25085;-71
2023/10/15 01:09:30;;;;;;;5.70;1.55;;;;;;;;;;4987828;28;25064;-70
2023/10/15 01:11:56;;;;;;;5.70;1.25;;;;;;;;;;4996092;28;25081;-70
2023/10/15 01:14:38;;;;;;;6.85;1.17;;;;;;;;;;4991454;28;25065;-69
2023/10/15 01:17:04;;;;;;;3.40;1.08;;;;;;;;;;4990716;28;25059;-71
2023/10/15 01:19:34;;;;;;;3.25;0.80;;;;;;;;;;4993204;28;25121;-70
2023/10/15 01:22:04;;;;;;;5.25;0.82;;;;;;;;;;5000804;28;25076;-71
2023/10/15 01:24:34;;;;;;;7.63;1.02;;;;;;;;;;4974394;28;25082;-72
2023/10/15 01:27:05;;;;;;;3.72;1.10;;;;;;;;;;4987828;28;25119;-71
2023/10/15 01:29:34;;;;;;;1.85;0.93;;;;;;;;;;4985445;28;25070;-73
2023/10/15 01:32:07;;;;;;;5.60;1.33;;;;;;;;;;4991540;28;25143;-72
2023/10/15 01:34:44;;;;;;;6.07;1.33;;;;;;;;;;4989563;28;25077;-72
2023/10/15 01:40:37;;;;;;;4.78;1.42;;;;;;;;;;4988572;28;25119;-72
2023/10/15 01:42:53;;;;;;;4.95;1.10;;;;;;;;;;4992037;28;25166;-71
2023/10/15 01:45:31;;;;;;;4.97;1.25;;;;;;;;;;4990513;28;25052;-71
2023/10/15 01:48:04;;;;;;;5.38;1.30;;;;;;;;;;4986443;28;25103;-70
2023/10/15 01:50:49;;;;;;;8.10;1.15;;;;;;;;;;4993243;28;25063;-70
2023/10/15 01:53:15;;;;;;;4.70;0.88;;;;;;;;;;4982695;28;25144;-69
2023/10/15 01:55:53;;;;;;;3.15;1.05;;;;;;;;;;4993962;28;25067;-71
2023/10/15 01:58:27;;;;;;;7.07;1.17;;;;;;;;;;4976956;28;25077;-69
2023/10/15 02:00:53;;;;;;;7.25;1.38;;;;;;;;;;4988813;28;25062;-72
2023/10/15 02:03:19;;;;;;;6.15;1.33;;;;;;;;;;4990807;28;25078;-71
2023/10/15 02:05:45;;;;;;;3.65;0.88;;;;;;;;;;4991611;28;25078;-70
2023/10/15 02:08:13;;;;;;;1.40;0.60;;;;;;;;;;4991248;28;25075;-70
2023/10/15 02:10:39;;;;;;;7.03;0.77;;;;;;;;;;4990156;28;25067;-70
2023/10/15 02:13:08;;;;;;;5.95;1.67;;;;;;;;;;4989474;28;25064;-71
2023/10/15 02:15:39;;;;;;;3.63;0.80;;;;;;;;;;4994522;28;25062;-73
2023/10/15 02:18:05;;;;;;;5.32;1.10;;;;;;;;;;4986244;28;25070;-70
2023/10/15 02:23:18;;;;;;;8.10;0.80;;;;;;;;;;4993637;28;25080;-74
2023/10/15 02:25:52;;;;;;;8.18;0.80;;;;;;;;;;4987786;28;25108;-75
2023/10/15 02:28:25;;;;;;;6.15;1.00;;;;;;;;;;4988861;28;25133;-72
2023/10/15 02:30:58;;;;;;;5.55;0.80;;;;;;;;;;4994343;28;25155;-73
2023/10/15 02:33:25;;;;;;;7.45;1.35;;;;;;;;;;4989654;28;25105;-74
2023/10/15 02:35:54;;;;;;;7.00;1.80;;;;;;;;;;4990693;28;25077;-71
2023/10/15 02:38:26;;;;;;;10.15;1.70;;;;;;;;;;4970188;28;25173;-73
2023/10/15 02:41:03;;;;;;;4.78;1.27;;;;;;;;;;4967489;28;25158;-72
2023/10/15 02:43:29;;;;;;;6.82;1.10;;;;;;;;;;4982203;28;25111;-72
2023/10/15 02:46:00;;;;;;;6.45;1.02;;;;;;;;;;4990686;28;25066;-73
2023/10/15 02:48:26;;;;;;;5.32;1.30;;;;;;;;;;4975437;28;25139;-73
2023/10/15 02:51:00;;;;;;;4.47;1.33;;;;;;;;;;4995150;28;25070;-76
2023/10/15 02:53:34;;;;;;;3.08;0.95;;;;;;;;;;4992390;28;25090;-71
2023/10/15 02:56:10;;;;;;;6.05;1.17;;;;;;;;;;4992307;28;25107;-71
2023/10/15 02:58:36;;;;;;;5.15;0.80;;;;;;;;;;4992127;28;25104;-71
2023/10/15 03:01:23;;;;;;;6.13;1.15;;;;;;;;;;4996428;28;25071;-72
2023/10/15 03:03:50;;;;;;;3.33;0.95;;;;;;;;;;4991475;28;25086;-72
2023/10/15 03:06:31;;;;;;;5.22;0.80;;;;;;;;;;4992408;28;25083;-73
2023/10/15 03:08:59;;;;;;;5.93;1.15;;;;;;;;;;4990582;28;25070;-71
2023/10/15 03:11:31;;;;;;;3.75;1.08;;;;;;;;;;4991350;28;25153;-71
2023/10/15 03:14:00;;;;;;;6.72;1.33;;;;;;;;;;4992892;28;25112;-72
2023/10/15 03:16:30;;;;;;;4.63;1.10;;;;;;;;;;5003712;22;25167;-63
2023/10/15 03:18:56;;;;;;;5.03;1.08;;;;;;;;;;5008472;28;25060;-65
2023/10/15 03:21:25;;;;;;;6.93;1.60;;;;;;;;;;5012692;28;25082;-66
2023/10/15 03:23:57;;;;;;;4.75;1.17;;;;;;;;;;5013808;28;25053;-65
2023/10/15 03:26:23;;;;;;;;;;;;;;;;;;5003512;28;25067;-65
2023/10/15 03:28:52;;;;;;;4.32;0.98;;;;;;;;;;4990321;23;25073;-63
2023/10/15 03:31:25;;;;;;;8.85;1.27;;;;;;;;;;5005056;28;25165;-65
2023/10/15 03:36:44;;;;;;;5.30;1.02;;;;;;;;;;5010923;28;25077;-66
2023/10/15 03:39:15;;;;;;;3.78;0.98;;;;;;;;;;5011082;28;25123;-64
2023/10/15 03:41:41;;;;;;;7.22;1.20;;;;;;;;;;5013249;28;25084;-65
2023/10/15 03:44:10;;;;;;;12.57;2.33;;;;;;;;;;5021443;28;25049;-64
2023/10/15 03:46:36;;;;;;;8.73;1.45;;;;;;;;;;5012709;28;25045;-65
2023/10/15 03:49:13;;;;;;;5.13;1.33;;;;;;;;;;5018995;28;25068;-65
2023/10/15 03:51:47;;;;;;;2.28;0.80;;;;;;;;;;5010937;28;25138;-65
2023/10/15 03:54:13;;;;;;;6.05;1.48;;;;;;;;;;5012320;28;25093;-64
2023/10/15 03:56:43;;;;;;;4.70;1.02;;;;;;;;;;5011715;28;25102;-64
2023/10/15 03:59:11;;;;;;;3.97;0.95;;;;;;;;;;5014216;28;25134;-63
2023/10/15 04:01:43;;;;;;;7.68;0.90;;;;;;;;;;5019982;28;25083;-63
2023/10/15 04:04:10;;;;;;;4.07;0.85;;;;;;;;;;5010227;28;25117;-64
2023/10/15 04:06:36;;;;;;;3.25;0.70;;;;;;;;;;5010911;28;25070;-63
2023/10/15 04:11:37;;;;;;;6.03;0.90;;;;;;;;;;5011021;28;25078;-64
2023/10/15 04:14:49;;;;;;;6.60;1.73;;;;;;;;;;5008476;28;25119;-64
2023/10/15 04:16:50;;;;;;;5.22;1.20;;;;;;;;;;4996271;28;25062;-65
2023/10/15 04:19:20;;;;;;;6.60;1.02;;;;;;;;;;5005908;28;25089;-63
2023/10/15 04:21:46;;;;;;;6.22;1.10;;;;;;;;;;5001854;28;25121;-62
2023/10/15 04:24:27;;;;;;;5.97;1.83;;;;;;;;;;5003663;28;25176;-65
2023/10/15 04:26:53;;;;;;;7.60;1.40;;;;;;;;;;5003841;28;25095;-65
2023/10/15 04:29:21;;;;;;;4.72;1.10;;;;;;;;;;5002664;28;25130;-65
2023/10/15 04:32:09;;;;;;;7.72;1.42;;;;;;;;;;5002036;28;25060;-65
2023/10/15 04:34:36;;;;;;;2.83;1.13;;;;;;;;;;5002528;28;25061;-65
2023/10/15 04:37:16;;;;;;;4.72;1.30;;;;;;;;;;5002876;28;25060;-63
2023/10/15 04:39:51;;;;;;;8.90;1.63;;;;;;;;;;5002702;28;25043;-64
2023/10/15 04:42:21;;;;;;;9.15;2.25;;;;;;;;;;5002915;28;25047;-63
2023/10/15 04:44:49;;;;;;;7.00;1.55;;;;;;;;;;5002651;28;25049;-63
2023/10/15 04:47:25;;;;;;;4.07;1.20;;;;;;;;;;5002691;28;25066;-63
2023/10/15 04:49:56;;;;;;;6.03;0.85;;;;;;;;;;4999752;28;25151;-63
2023/10/15 04:52:22;;;;;;;10.65;0.95;;;;;;;;;;5005152;28;25109;-61
2023/10/15 04:54:48;;;;;;;3.22;0.77;;;;;;;;;;5004658;28;25061;-63
2023/10/15 04:57:14;;;;;;;1.98;0.60;;;;;;;;;;5013206;28;25055;-63
2023/10/15 04:59:41;;;;;;;2.92;0.80;;;;;;;;;;5011253;28;25057;-63
2023/10/15 05:02:08;;;;;;;10.00;0.90;;;;;;;;;;5008629;28;25080;-63
2023/10/15 05:04:35;;;;;;;2.10;0.85;;;;;;;;;;5010762;28;25083;-63
2023/10/15 05:07:01;;;;;;;7.13;1.05;;;;;;;;;;4987890;28;25074;-63
2023/10/15 05:09:31;;;;;;;6.28;0.85;;;;;;;;;;5006404;28;25148;-63
2023/10/15 05:11:58;;;;;;;6.18;0.93;;;;;;;;;;5003538;28;25066;-63
2023/10/15 05:14:24;;;;;;;4.28;0.70;;;;;;;;;;5003622;28;25114;-63
2023/10/15 05:16:50;;;;;;;6.32;1.08;;;;;;;;;;5004123;28;25150;-63
2023/10/15 05:19:19;;;;;;;5.55;1.05;;;;;;;;;;5005711;28;25084;-63
2023/10/15 05:21:46;;;;;;;3.80;1.00;;;;;;;;;;5006569;28;25066;-63
2023/10/15 05:24:18;;;;;;;4.07;1.00;;;;;;;;;;5007831;28;25082;-64
2023/10/15 05:26:46;;;;;;;4.05;1.20;;;;;;;;;;5003511;28;25105;-63
2023/10/15 05:29:13;;;;;;;3.65;1.17;;;;;;;;;;4989589;28;25047;-64
2023/10/15 05:31:39;;;;;;;6.38;1.83;;;;;;;;;;4988631;28;25067;-64
2023/10/15 05:34:07;;;;;;;5.45;1.25;;;;;;;;;;5007270;28;25110;-63
2023/10/15 05:36:33;;;;;;;3.90;0.77;;;;;;;;;;5008504;28;25054;-63
2023/10/15 05:38:59;;;;;;;7.75;1.08;;;;;;;;;;5006903;28;25068;-62
2023/10/15 05:41:27;;;;;;;3.28;1.05;;;;;;;;;;5007821;28;25063;-63
2023/10/15 05:43:53;;;;;;;5.00;1.45;;;;;;;;;;5006084;28;25070;-64
2023/10/15 05:46:20;;;;;;;6.85;2.35;;;;;;;;;;5006952;28;25088;-64
2023/10/15 05:48:47;;;;;;;5.60;1.60;;;;;;;;;;4984066;28;25067;-62
2023/10/15 05:51:13;;;;;;;8.55;1.42;;;;;;;;;;5003015;28;25074;-64
2023/10/15 05:53:39;;;;;;;4.80;1.40;;;;;;;;;;5001837;28;25067;-64
2023/10/15 05:56:05;;;;;;;4.18;1.13;;;;;;;;;;5001194;28;25064;-64
2023/10/15 05:58:31;;;;;;;11.27;1.48;;;;;;;;;;5004450;28;25109;-64
2023/10/15 06:00:57;;;;;;;6.93;1.73;;;;;;;;;;5001881;28;25148;-64
2023/10/15 06:03:23;;;;;;;7.47;1.60;;;;;;;;;;5003860;28;25122;-64
2023/10/15 06:05:49;;;;;;;6.15;1.35;;;;;;;;;;5001539;28;25142;-62
2023/10/15 06:08:18;;;;;;;4.90;1.15;;;;;;;;;;5003098;28;25083;-63
2023/10/15 06:10:44;;;;;;;7.10;1.13;;;;;;;;;;5005549;28;25057;-64
2023/10/15 06:13:10;;;;;;;4.32;1.08;;;;;;;;;;5007543;28;25080;-63
2023/10/15 06:15:37;;;;;;;5.72;1.10;;;;;;;;;;4988123;28;25054;-64
2023/10/15 06:18:03;;;;;;;4.82;1.20;;;;;;;;;;4988896;28;25055;-64
2023/10/15 06:20:29;;;;;;;5.90;1.13;;;;;;;;;;5004924;28;25078;-63
2023/10/15 06:22:55;;;;;;;7.68;2.38;;;;;;;;;;5005513;28;25145;-64
2023/10/15 06:25:23;;;;;;;5.00;1.35;;;;;;;;;;5007311;28;25074;-64
2023/10/15 06:27:49;;;;;;;4.25;1.27;;;;;;;;;;5007299;28;25139;-62
2023/10/15 06:30:16;;;;;;;5.47;1.55;;;;;;;;;;5003715;28;25070;-63
2023/10/15 06:32:47;;;;;;;4.85;1.63;;;;;;;;;;4999517;28;25119;-65
2023/10/15 06:35:18;;;;;;;6.28;1.55;;;;;;;;;;5007457;28;25113;-64
2023/10/15 06:37:44;;;;;;;9.45;1.25;;;;;;;;;;5007572;28;25139;-63
2023/10/15 06:40:10;;;;;;;8.77;1.45;;;;;;;;;;5007046;28;25081;-64
2023/10/15 06:42:37;;;;;;;10.48;1.40;;;;;;;;;;5008010;28;25089;-64
2023/10/15 06:45:03;;;;;;;7.35;1.35;;;;;;;;;;5006238;28;25053;-65
2023/10/15 06:47:29;;;;;;;4.55;2.13;;;;;;;;;;5008847;28;25076;-64
2023/10/15 06:49:55;;;;;;;11.18;1.55;;;;;;;;;;4974436;28;25060;-64
2023/10/15 06:52:21;;;;;;;7.53;1.30;;;;;;;;;;5009676;28;25125;-65
2023/10/15 06:54:48;;;;;;;11.68;1.60;;;;;;;;;;5007361;28;25078;-65
2023/10/15 06:57:16;;;;;;;5.03;1.20;;;;;;;;;;5002962;28;25060;-65
2023/10/15 06:59:42;;;;;;;8.68;1.48;;;;;;;;;;5006557;28;25065;-65
2023/10/15 07:02:08;;;;;;;7.95;2.78;;;;;;;;;;5006364;28;25062;-65
2023/10/15 07:04:34;;;;;;;5.28;2.63;;;;;;;;;;5004084;28;25058;-65
2023/10/15 07:07:00;;;;;;;10.38;3.20;;;;;;;;;;5007716;28;25069;-65
2023/10/15 07:09:27;;;;;;;8.60;2.58;;;;;;;;;;5007099;28;25075;-65
2023/10/15 07:11:53;;;;;;;11.00;2.70;;;;;;;;;;5006725;28;25060;-65
2023/10/15 07:14:19;;;;;;;6.80;1.90;;;;;;;;;;4989353;28;25094;-65
2023/10/15 07:16:45;;;;;;;9.57;1.33;;;;;;;;;;5005920;28;25081;-65
2023/10/15 07:19:11;;;;;;;6.50;1.60;;;;;;;;;;5010920;28;25070;-65
2023/10/15 07:21:37;;;;;;;6.63;1.20;;;;;;;;;;5006003;28;25074;-65
2023/10/15 07:24:05;;;;;;;4.93;1.40;;;;;;;;;;5003291;28;25082;-65
2023/10/15 07:26:31;;;;;;;5.13;1.13;;;;;;;;;;5006143;28;24906;-66
2023/10/15 07:28:57;;;;;;;4.65;1.25;;;;;;;;;;5004151;28;25164;-63
2023/10/15 07:31:24;;;;;;;8.02;1.52;;;;;;;;;;5002318;28;25075;-65
2023/10/15 07:33:50;;;;;;;8.25;1.33;;;;;;;;;;5006241;28;25096;-66
2023/10/15 07:36:16;;;;;;;7.18;1.48;;;;;;;;;;5000651;28;25064;-64
2023/10/15 07:38:42;;;;;;;2.78;1.15;;;;;;;;;;5006498;28;25050;-64
2023/10/15 07:41:09;;;;;;;8.63;2.83;;;;;;;;;;4997912;28;25108;-65
2023/10/15 07:43:35;;;;;;;6.10;1.52;;;;;;;;;;4999343;28;25064;-65
2023/10/15 07:46:01;;;;;;;10.40;2.53;;;;;;;;;;5004292;28;25133;-65
2023/10/15 07:48:27;;;;;;;10.95;2.28;;;;;;;;;;4995460;28;25135;-64
2023/10/15 07:50:54;;;;;;;13.13;2.20;;;;;;;;;;4997913;28;25068;-66
2023/10/15 07:53:21;;;;;;;4.97;1.45;;;;;;;;;;5006564;28;25058;-65
2023/10/15 07:55:49;;;;;;;9.20;1.85;;;;;;;;;;5004763;28;25108;-65
2023/10/15 07:58:14;;;;;;;6.30;1.45;;;;;;;;;;4997017;28;25143;-65
2023/10/15 08:00:41;;;;;;;9.20;1.67;;;;;;;;;;5002475;28;25085;-65
2023/10/15 08:03:07;;;;;;;6.72;2.10;;;;;;;;;;4982245;28;25078;-65
2023/10/15 08:05:33;;;;;;;4.82;1.63;;;;;;;;;;5004489;28;25152;-65
2023/10/15 08:07:59;;;;;;;6.18;2.00;;;;;;;;;;4980850;28;25053;-66
2023/10/15 08:10:31;;;;;;;6.75;1.80;;;;;;;;;;5001268;28;25118;-63
2023/10/15 08:12:58;;;;;;;5.18;1.30;;;;;;;;;;5003600;28;25062;-64
2023/10/15 08:15:24;;;;;;;5.07;1.42;;;;;;;;;;4996571;28;25075;-66
2023/10/15 08:17:50;;;;;;;8.95;1.98;;;;;;;;;;5002059;28;25046;-66
2023/10/15 08:20:16;;;;;;;5.85;1.70;;;;;;;;;;5000592;28;25151;-66
2023/10/15 08:22:44;;;;;;;4.57;1.50;;;;;;;;;;4994264;28;25102;-66
2023/10/15 08:25:13;;;;;;;6.88;1.45;;;;;;;;;;4997523;28;25053;-64
2023/10/15 08:27:41;;;;;;;4.90;1.35;;;;;;;;;;5012892;28;25093;-66
2023/10/15 08:30:08;;;;;;;10.10;1.38;;;;;;;;;;5012148;28;25070;-65
2023/10/15 08:32:34;;;;;;;6.40;1.38;;;;;;;;;;5013492;28;25108;-68
2023/10/15 08:34:59;;;;;;;10.20;1.33;;;;;;;;;;5009365;28;25068;-66
2023/10/15 08:37:25;;;;;;;12.05;1.38;;;;;;;;;;5006635;28;25076;-63
2023/10/15 08:39:51;;;;;;;15.80;2.15;;;;;;;;;;5007170;28;25154;-63
2023/10/15 08:42:26;;;;;;;6.40;1.45;;;;;;;;;;5005286;28;25090;-64
2023/10/15 08:44:57;;;;;;;5.35;1.35;;;;;;;;;;4983423;28;25091;-66
2023/10/15 08:47:25;;;;;;;5.43;1.30;;;;;;;;;;5003246;28;25145;-65
2023/10/15 08:49:52;;;;;;;6.88;1.38;;;;;;;;;;5000166;28;25078;-64
2023/10/15 08:52:21;;;;;;;7.35;1.17;;;;;;;;;;5004185;28;25069;-66
2023/10/15 08:54:47;;;;;;;9.13;1.00;;;;;;;;;;4992487;28;25071;-65
2023/10/15 08:57:18;;;;;;;7.20;1.15;;;;;;;;;;5005820;28;25109;-66
2023/10/15 08:59:44;;;;;;;9.73;1.40;;;;;;;;;;5004633;28;25143;-65
2023/10/15 09:02:10;;;;;;;9.50;1.80;;;;;;;;;;4995268;28;25065;-68
2023/10/15 09:04:37;;;;;;;7.75;1.17;;;;;;;;;;4983142;28;25065;-67
2023/10/15 09:07:03;;;;;;;5.25;0.98;;;;;;;;;;5002649;28;25062;-70
2023/10/15 09:09:29;;;;;;;5.00;0.73;;;;;;;;;;5006130;28;25130;-68
2023/10/15 09:11:56;;;;;;;3.60;0.98;;;;;;;;;;5003411;28;25050;-69
2023/10/15 09:14:58;;;;;;;6.18;0.93;;;;;;;;;;5002201;28;25139;-67
2023/10/15 09:17:26;;;;;;;5.97;1.20;;;;;;;;;;4946930;28;25074;-68
2023/10/15 09:19:52;;;;;;;6.32;1.17;;;;;;;;;;4978184;28;25119;-68
2023/10/15 09:22:18;;;;;;;6.22;2.00;;;;;;;;;;5004435;28;25060;-68
2023/10/15 09:24:45;;;;;;;6.15;1.20;;;;;;;;;;5005900;28;25057;-68
2023/10/15 09:27:11;;;;;;;3.58;1.00;;;;;;;;;;5009285;28;25105;-69
2023/10/15 09:29:38;;;;;;;6.85;1.95;;;;;;;;;;5009617;23;25071;-68
2023/10/15 09:32:04;;;;;;;9.57;1.48;;;;;;;;;;5004109;28;25135;-69
2023/10/15 09:34:31;;;;;;;6.60;1.67;;;;;;;;;;5010035;28;25088;-69
2023/10/15 09:37:00;;;;;;;6.68;1.38;;;;;;;;;;4999342;28;25062;-67
2023/10/15 09:39:26;;;;;;;7.43;1.83;;;;;;;;;;4995007;28;25138;-67
2023/10/15 09:41:54;;;;;;;4.40;1.50;;;;;;;;;;5005228;28;25131;-68
2023/10/15 09:44:21;;;;;;;13.25;1.63;;;;;;;;;;4999415;28;25121;-69
2023/10/15 09:46:47;;;;;;;6.28;1.13;;;;;;;;;;5002483;28;25073;-66
2023/10/15 09:49:13;;;;;;;6.80;1.23;;;;;;;;;;5000609;28;25099;-65
2023/10/15 09:51:40;;;;;;;8.10;1.85;;;;;;;;;;5002010;28;25078;-65
2023/10/15 09:54:14;;;;;;;12.25;1.50;;;;;;;;;;5006241;28;25076;-67
2023/10/15 09:56:41;;;;;;;7.40;1.45;;;;;;;;;;4997981;28;25060;-66
2023/10/15 09:59:10;;;;;;;8.70;1.73;;;;;;;;;;4997707;28;25207;-66
2023/10/15 10:01:38;;;;;;;7.22;1.52;;;;;;;;;;4984120;28;25052;-66
2023/10/15 10:04:15;;;;;;;5.03;0.70;;;;;;;;;;5005465;28;25149;-66
2023/10/15 10:06:41;;;;;;;4.35;0.70;;;;;;;;;;5002150;28;25132;-69
2023/10/15 10:09:10;;;;;;;9.77;1.67;;;;;;;;;;5002917;28;25086;-68
2023/10/15 10:11:38;;;;;;;3.05;0.70;;;;;;;;;;5004748;28;25064;-69
2023/10/15 10:14:07;;;;;;;7.32;1.10;;;;;;;;;;5003082;28;25066;-68
2023/10/15 10:16:34;;;;;;;6.28;1.02;;;;;;;;;;4981341;28;25049;-68
2023/10/15 10:19:01;;;;;;;5.68;0.90;;;;;;;;;;5004540;28;25073;-68
2023/10/15 10:21:31;;;;;;;4.85;1.05;;;;;;;;;;5005372;28;25064;-68
2023/10/15 10:24:02;;;;;;;4.53;2.72;;;;;;;;;;5008523;28;25089;-68
2023/10/15 10:26:32;;;;;;;3.25;1.45;;;;;;;;;;5009955;28;25075;-68
2023/10/15 10:28:59;;;;;;;4.57;0.90;;;;;;;;;;5003215;28;25141;-68
2023/10/15 10:31:29;;;;;;;2.97;0.85;;;;;;;;;;5000328;28;25147;-66
2023/10/15 10:33:56;;;;;;;4.80;0.85;;;;;;;;;;5014005;28;25048;-67
2023/10/15 10:36:27;;;;;;;5.90;1.05;;;;;;;;;;4992990;28;25055;-68
2023/10/15 10:39:13;;;;;;;5.68;1.10;;;;;;;;;;4998257;28;25086;-68
2023/10/15 10:41:40;;;;;;;8.15;1.55;;;;;;;;;;5003425;28;25087;-68
2023/10/15 10:44:07;;;;;;;4.15;0.80;;;;;;;;;;5005782;28;25147;-68
2023/10/15 10:46:41;;;;;;;6.03;1.23;;;;;;;;;;5006009;28;25057;-68
2023/10/15 10:49:17;;;;;;;2.80;1.20;;;;;;;;;;5007612;28;25140;-67
2023/10/15 10:51:43;;;;;;;6.05;1.05;;;;;;;;;;5007394;28;25135;-69
2023/10/15 10:54:09;;;;;;;6.82;1.15;;;;;;;;;;4999604;28;25086;-69
2023/10/15 10:56:38;;;;;;;7.22;1.55;;;;;;;;;;5015026;28;25051;-70
2023/10/15 10:59:06;;;;;;;8.13;1.52;;;;;;;;;;5010619;28;25075;-69
2023/10/15 11:01:44;;;;;;;10.90;2.15;;;;;;;;;;4990382;28;25058;-68
2023/10/15 11:04:11;;;;;;;6.45;1.30;;;;;;;;;;5006417;28;25114;-67
2023/10/15 11:06:38;;;;;;;5.63;1.55;;;;;;;;;;5003436;28;25132;-68
2023/10/15 11:09:18;;;;;;;3.13;1.45;;;;;;;;;;5005714;28;25067;-67
2023/10/15 11:11:48;;;;;;;7.35;1.55;;;;;;;;;;5002575;28;25067;-67
2023/10/15 11:14:18;;;;;;;6.03;1.30;;;;;;;;;;5000190;28;25057;-66
2023/10/15 11:16:44;;;;;;;11.05;1.35;;;;;;;;;;5009011;28;25079;-68
2023/10/15 11:19:17;;;;;;;3.20;1.00;;;;;;;;;;5012033;28;25076;-68
2023/10/15 11:21:43;;;;;;;3.85;1.08;;;;;;;;;;5012426;28;25079;-68
2023/10/15 11:24:12;;;;;;;5.97;1.20;;;;;;;;;;5005442;28;25060;-68
2023/10/15 11:26:41;;;;;;;9.05;1.40;;;;;;;;;;5010943;28;25071;-67
2023/10/15 11:29:08;;;;;;;5.15;1.30;;;;;;;;;;5010840;28;25074;-65
2023/10/15 11:31:34;;;;;;;8.93;1.63;;;;;;;;;;5011925;28;25076;-66
2023/10/15 11:34:01;;;;;;;4.45;1.40;;;;;;;;;;5013691;28;25051;-67
2023/10/15 11:36:28;;;;;;;6.60;1.25;;;;;;;;;;5014149;28;25084;-67
2023/10/15 11:38:54;;;;;;;6.28;1.38;;;;;;;;;;5009716;28;25052;-67
2023/10/15 11:41:21;;;;;;;8.90;1.70;;;;;;;;;;5007287;28;25073;-68
2023/10/15 11:43:49;;;;;;;7.75;1.48;;;;;;;;;;5003158;28;25133;-68
2023/10/15 11:46:19;;;;;;;8.02;1.50;;;;;;;;;;5002331;28;25162;-68
2023/10/15 11:48:45;;;;;;;5.78;1.40;;;;;;;;;;5001450;28;25055;-68
2023/10/15 11:51:11;;;;;;;3.42;1.60;;;;;;;;;;5003598;28;25067;-67
2023/10/15 11:53:41;;;;;;;5.70;1.30;;;;;;;;;;5002083;28;25152;-69
2023/10/15 11:56:16;;;;;;;6.55;1.10;;;;;;;;;;5007751;28;25066;-67
2023/10/15 11:58:45;;;;;;;7.13;1.45;;;;;;;;;;5005719;28;25071;-69
2023/10/15 12:01:14;;;;;;;9.90;2.35;;;;;;;;;;5006474;28;25058;-67
2023/10/15 12:03:41;;;;;;;8.35;1.52;;;;;;;;;;5004846;28;25064;-67
2023/10/15 12:06:07;;;;;;;4.32;1.30;;;;;;;;;;5002947;28;25060;-67
2023/10/15 12:08:33;;;;;;;4.30;1.35;;;;;;;;;;5000594;28;25164;-66
2023/10/15 12:10:59;;;;;;;6.28;1.60;;;;;;;;;;4999681;28;25129;-66
2023/10/15 12:13:26;;;;;;;9.45;1.85;;;;;;;;;;4993572;28;25084;-66
2023/10/15 12:15:52;;;;;;;14.35;2.15;;;;;;;;;;5013196;28;25075;-66
2023/10/15 12:18:18;;;;;;;7.47;1.48;;;;;;;;;;5010224;28;25081;-67
2023/10/15 12:20:44;;;;;;;6.72;2.00;;;;;;;;;;5009779;28;25067;-66
2023/10/15 12:23:10;;;;;;;12.75;1.85;;;;;;;;;;5005512;28;25058;-67
2023/10/15 12:25:38;;;;;;;9.77;1.73;;;;;;;;;;5000014;28;25065;-67
2023/10/15 12:28:05;;;;;;;6.88;1.80;;;;;;;;;;4988629;28;25070;-66
2023/10/15 12:30:32;;;;;;;7.97;2.10;;;;;;;;;;5000730;28;25072;-63
2023/10/15 12:32:58;;;;;;;5.75;1.45;;;;;;;;;;5002606;28;25072;-65
2023/10/15 12:35:27;;;;;;;7.68;1.42;;;;;;;;;;5004762;28;25078;-66
2023/10/15 12:38:02;;;;;;;6.13;1.30;;;;;;;;;;5002244;28;25081;-66
2023/10/15 12:40:32;;;;;;;5.80;1.48;;;;;;;;;;5004889;28;25071;-66
2023/10/15 12:43:11;;;;;;;5.07;1.00;;;;;;;;;;5002171;28;25057;-64
2023/10/15 12:45:37;;;;;;;5.60;1.25;;;;;;;;;;4997208;28;25090;-65
2023/10/15 12:48:04;;;;;;;9.13;1.95;;;;;;;;;;4999051;28;25080;-63
2023/10/15 12:50:31;;;;;;;4.78;0.98;;;;;;;;;;4996857;28;25129;-64
2023/10/15 12:52:58;;;;;;;3.50;0.80;;;;;;;;;;5009271;28;25120;-64
2023/10/15 12:55:24;;;;;;;4.38;0.98;;;;;;;;;;4997169;28;25061;-64
2023/10/15 12:57:50;;;;;;;8.45;1.10;;;;;;;;;;5004995;28;25114;-65
2023/10/15 13:00:21;;;;;;;4.65;0.90;;;;;;;;;;4980185;28;25055;-63
2023/10/15 13:02:49;;;;;;;4.35;0.90;;;;;;;;;;5005128;28;25058;-62
2023/10/15 13:05:15;;;;;;;3.05;1.27;;;;;;;;;;5001070;28;25081;-62
2023/10/15 13:07:41;;;;;;;3.17;1.02;;;;;;;;;;5003123;28;25099;-64
2023/10/15 13:10:13;;;;;;;8.48;1.38;;;;;;;;;;4981511;28;25066;-64
2023/10/15 13:12:39;;;;;;;6.28;1.13;;;;;;;;;;4998496;28;25095;-64
2023/10/15 13:15:10;;;;;;;5.68;1.08;;;;;;;;;;5004800;28;25059;-64
2023/10/15 13:17:37;;;;;;;4.25;1.00;;;;;;;;;;4983356;28;25094;-63
2023/10/15 13:20:06;;;;;;;4.75;1.33;;;;;;;;;;4999174;28;25046;-66
2023/10/15 13:22:32;;;;;;;4.57;0.98;;;;;;;;;;4999732;28;25046;-64
2023/10/15 13:24:58;;;;;;;4.63;1.17;;;;;;;;;;4987106;28;25096;-65
2023/10/15 13:27:25;;;;;;;2.70;0.80;;;;;;;;;;5005352;28;25110;-63
2023/10/15 13:29:51;;;;;;;3.20;0.95;;;;;;;;;;4997196;28;25059;-64
2023/10/15 13:32:17;;;;;;;5.63;1.20;;;;;;;;;;4999174;28;25056;-64
2023/10/15 13:34:43;;;;;;;6.05;1.05;;;;;;;;;;5001550;28;25078;-65
2023/10/15 13:37:12;;;;;;;3.28;1.20;;;;;;;;;;5005002;28;25101;-64
2023/10/15 13:39:39;;;;;;;6.18;1.33;;;;;;;;;;5002921;28;25097;-63
2023/10/15 13:42:05;;;;;;;6.10;1.48;;;;;;;;;;5004485;28;25060;-62
2023/10/15 13:44:31;;;;;;;5.97;1.08;;;;;;;;;;5007262;28;25053;-63
2023/10/15 13:46:57;;;;;;;5.00;2.00;;;;;;;;;;5000854;28;25072;-63
2023/10/15 13:49:23;;;;;;;9.18;1.52;;;;;;;;;;5004193;28;25140;-65
2023/10/15 13:51:49;;;;;;;7.47;1.63;;;;;;;;;;4987290;28;25155;-67
2023/10/15 13:54:16;;;;;;;6.70;1.52;;;;;;;;;;5000628;28;25102;-64
2023/10/15 13:56:42;;;;;;;6.45;1.48;;;;;;;;;;4999521;28;25107;-64
2023/10/15 13:59:12;;;;;;;6.85;1.27;;;;;;;;;;5005112;28;25058;-63
2023/10/15 14:01:38;;;;;;;5.22;1.00;;;;;;;;;;5002226;28;25080;-64
2023/10/15 14:04:05;;;;;;;4.78;2.25;;;;;;;;;;4995735;28;25077;-63
2023/10/15 14:06:31;;;;;;;6.88;1.13;;;;;;;;;;4998345;28;25159;-65
2023/10/15 14:08:57;;;;;;;3.85;1.17;;;;;;;;;;4998260;28;25054;-64
2023/10/15 14:11:24;;;;;;;3.72;1.23;;;;;;;;;;5000822;28;25075;-65
2023/10/15 14:13:49;;;;;;;9.50;1.25;;;;;;;;;;4999367;28;25135;-65
2023/10/15 14:16:15;;;;;;;10.10;1.35;;;;;;;;;;5002747;28;25060;-63
2023/10/15 14:18:41;;;;;;;4.68;1.13;;;;;;;;;;5001646;28;25065;-65
2023/10/15 14:21:08;;;;;;;7.57;1.50;;;;;;;;;;5004056;28;25062;-64
2023/10/15 14:23:34;;;;;;;9.30;1.60;;;;;;;;;;4999904;28;25104;-64
2023/10/15 14:26:01;;;;;;;5.95;1.42;;;;;;;;;;5007142;28;25060;-62
2023/10/15 14:28:27;;;;;;;8.57;1.65;;;;;;;;;;5001156;28;25150;-62
2023/10/15 14:30:54;;;;;;;8.85;2.38;;;;;;;;;;5000210;28;25064;-64
2023/10/15 14:33:20;;;;;;;5.47;1.10;;;;;;;;;;5005210;28;25055;-66
2023/10/15 14:35:48;;;;;;;7.35;1.70;;;;;;;;;;5007728;28;25050;-67
2023/10/15 14:38:14;;;;;;;4.57;1.00;;;;;;;;;;5007043;28;25087;-63
2023/10/15 14:40:42;;;;;;;4.05;1.00;;;;;;;;;;5005847;28;25102;-61
2023/10/15 14:43:08;;;;;;;9.93;1.00;;;;;;;;;;5007494;28;25068;-64
2023/10/15 14:45:35;;;;;;;5.70;1.17;;;;;;;;;;5007560;28;25049;-64
2023/10/15 14:48:01;;;;;;;3.25;0.75;;;;;;;;;;5003947;28;25079;-63
2023/10/15 14:50:27;;;;;;;6.10;0.90;;;;;;;;;;5008267;28;25104;-65
2023/10/15 14:52:53;;;;;;;3.13;0.98;;;;;;;;;;5003324;28;25068;-62
2023/10/15 14:55:19;;;;;;;4.88;1.20;;;;;;;;;;5006179;28;25071;-63
2023/10/15 14:57:45;;;;;;;3.83;0.90;;;;;;;;;;4998350;28;25071;-64
2023/10/15 15:00:14;;;;;;;4.38;0.90;;;;;;;;;;5008164;28;25127;-64